sensor_id;sensor_type;location;lat;lon;timestamp;temperature;humidity
1123;DHT22;548;48.778;9.252;2023-03-15T10:11:24;9.10;85.70
1123;DHT22;548;48.778;9.252;2023-03-15T10:14:01;9.20;87.80
1123;DHT22;548;48.778;9.252;2023-03-15T10:16:37;9.30;86.70
1123;DHT22;548;48.778;9.252;2023-03-15T10:19:14;9.40;88.30
1123;DHT22;548;48.778;9.252;2023-03-15T10:21:51;9.80;88.60
1123;DHT22;548;48.778;9.252;2023-03-15T10:24:24;10.00;86.70
1123;DHT22;548;48.778;9.252;2023-03-15T10:26:58;10.50;86.90
1123;DHT22;548;48.778;9.252;2023-03-15T10:29:26;10.90;85.10
1123;DHT22;548;48.778;9.252;2023-03-15T10:31:53;10.90;83.40
1123;DHT22;548;48.778;9.252;2023-03-15T10:34:20;10.90;82.40
1123;DHT22;548;48.778;9.252;2023-03-15T10:36:49;10.20;80.40
1123;DHT22;548;48.778;9.252;2023-03-15T10:39:19;9.60;85.00
1123;DHT22;548;48.778;9.252;2023-03-15T10:41:47;9.60;86.90
1123;DHT22;548;48.778;9.252;2023-03-15T10:44:18;9.70;88.40
1123;DHT22;548;48.778;9.252;2023-03-15T10:46:59;9.90;89.40
1123;DHT22;548;48.778;9.252;2023-03-15T10:49:34;10.70;84.90
1123;DHT22;548;48.778;9.252;2023-03-15T10:52:02;11.50;84.00
1123;DHT22;548;48.778;9.252;2023-03-15T10:54:31;11.90;79.70
1123;DHT22;548;48.778;9.252;2023-03-15T10:57:01;13.10;77.10
1123;DHT22;548;48.778;9.252;2023-03-15T10:59:32;13.10;74.80
1123;DHT22;548;48.778;9.252;2023-03-15T11:02:19;13.20;72.80
1123;DHT22;548;48.778;9.252;2023-03-15T11:04:48;13.00;73.20
1123;DHT22;548;48.778;9.252;2023-03-15T11:07:16;13.10;71.40
1123;DHT22;548;48.778;9.252;2023-03-15T11:09:44;12.10;71.60
1123;DHT22;548;48.778;9.252;2023-03-15T11:12:15;11.50;75.50
1123;DHT22;548;48.778;9.252;2023-03-15T11:14:45;11.40;77.30
1123;DHT22;548;48.778;9.252;2023-03-15T11:17:16;11.00;77.70
1123;DHT22;548;48.778;9.252;2023-03-15T11:19:48;10.60;78.90
1123;DHT22;548;48.778;9.252;2023-03-15T11:22:17;10.50;80.90
1123;DHT22;548;48.778;9.252;2023-03-15T11:24:44;10.40;81.00
1123;DHT22;548;48.778;9.252;2023-03-15T11:27:13;10.40;80.80
1123;DHT22;548;48.778;9.252;2023-03-15T11:29:45;10.40;80.70
1123;DHT22;548;48.778;9.252;2023-03-15T11:32:14;10.40;82.80
1123;DHT22;548;48.778;9.252;2023-03-15T11:34:47;10.30;82.60
1123;DHT22;548;48.778;9.252;2023-03-15T11:37:21;10.10;82.40
1123;DHT22;548;48.778;9.252;2023-03-15T11:39:52;10.00;83.00
1123;DHT22;548;48.778;9.252;2023-03-15T11:42:24;10.00;83.80
1123;DHT22;548;48.778;9.252;2023-03-15T11:44:58;9.80;88.00
1123;DHT22;548;48.778;9.252;2023-03-15T11:47:36;9.90;90.30
1123;DHT22;548;48.778;9.252;2023-03-15T11:50:05;10.20;88.90
1123;DHT22;548;48.778;9.252;2023-03-15T11:52:32;10.30;86.70
1123;DHT22;548;48.778;9.252;2023-03-15T11:55:00;10.20;83.30
1123;DHT22;548;48.778;9.252;2023-03-15T11:57:42;10.30;83.90
1123;DHT22;548;48.778;9.252;2023-03-15T12:03:30;10.60;82.30
1123;DHT22;548;48.778;9.252;2023-03-15T12:06:02;10.70;81.00
1123;DHT22;548;48.778;9.252;2023-03-15T12:08:46;10.80;77.90
1123;DHT22;548;48.778;9.252;2023-03-15T12:11:37;10.50;74.90
1123;DHT22;548;48.778;9.252;2023-03-15T12:14:09;10.20;75.00
1123;DHT22;548;48.778;9.252;2023-03-15T12:16:46;10.00;74.60
1123;DHT22;548;48.778;9.252;2023-03-15T12:19:16;10.00;75.70
1123;DHT22;548;48.778;9.252;2023-03-15T12:21:45;9.90;77.00
1123;DHT22;548;48.778;9.252;2023-03-15T12:24:15;10.00;74.50
1123;DHT22;548;48.778;9.252;2023-03-15T12:26:47;10.20;74.50
1123;DHT22;548;48.778;9.252;2023-03-15T12:29:21;10.30;74.60
1123;DHT22;548;48.778;9.252;2023-03-15T12:31:55;10.60;73.90
1123;DHT22;548;48.778;9.252;2023-03-15T12:34:27;10.40;74.60
1123;DHT22;548;48.778;9.252;2023-03-15T12:36:58;10.60;75.30
1123;DHT22;548;48.778;9.252;2023-03-15T12:39:41;10.80;74.80
1123;DHT22;548;48.778;9.252;2023-03-15T12:42:13;11.10;73.90
1123;DHT22;548;48.778;9.252;2023-03-15T12:45:32;11.10;74.00
1123;DHT22;548;48.778;9.252;2023-03-15T12:48:19;11.20;74.10
1123;DHT22;548;48.778;9.252;2023-03-15T12:50:53;11.40;74.50
1123;DHT22;548;48.778;9.252;2023-03-15T12:53:24;11.50;74.20
1123;DHT22;548;48.778;9.252;2023-03-15T12:55:53;11.50;74.50
1123;DHT22;548;48.778;9.252;2023-03-15T12:58:25;11.50;76.20
1123;DHT22;548;48.778;9.252;2023-03-15T13:00:53;11.70;76.60
1123;DHT22;548;48.778;9.252;2023-03-15T13:03:21;11.50;76.70
1123;DHT22;548;48.778;9.252;2023-03-15T13:05:55;11.10;79.20
1123;DHT22;548;48.778;9.252;2023-03-15T13:08:29;10.90;83.20
1123;DHT22;548;48.778;9.252;2023-03-15T13:11:09;10.20;90.20
1123;DHT22;548;48.778;9.252;2023-03-15T13:14:02;9.50;94.60
1123;DHT22;548;48.778;9.252;2023-03-15T13:16:34;9.30;97.20
1123;DHT22;548;48.778;9.252;2023-03-15T13:19:14;9.10;99.40
1123;DHT22;548;48.778;9.252;2023-03-15T13:21:55;9.10;99.60
1123;DHT22;548;48.778;9.252;2023-03-15T13:24:29;9.10;99.90
1123;DHT22;548;48.778;9.252;2023-03-15T13:27:02;9.20;99.90
1123;DHT22;548;48.778;9.252;2023-03-15T13:29:33;10.10;98.10
1123;DHT22;548;48.778;9.252;2023-03-15T13:32:01;10.90;95.60
1123;DHT22;548;48.778;9.252;2023-03-15T13:34:32;11.50;94.70
1123;DHT22;548;48.778;9.252;2023-03-15T13:37:00;11.40;93.10
1123;DHT22;548;48.778;9.252;2023-03-15T13:39:29;11.00;93.60
1123;DHT22;548;48.778;9.252;2023-03-15T13:41:57;10.60;94.80
1123;DHT22;548;48.778;9.252;2023-03-15T13:44:24;10.50;96.40
1123;DHT22;548;48.778;9.252;2023-03-15T13:46:52;10.30;95.90
1123;DHT22;548;48.778;9.252;2023-03-15T13:49:19;10.20;96.90
1123;DHT22;548;48.778;9.252;2023-03-15T13:51:48;10.10;96.70
1123;DHT22;548;48.778;9.252;2023-03-15T13:54:19;9.70;97.90
1123;DHT22;548;48.778;9.252;2023-03-15T13:56:55;9.40;98.30
1123;DHT22;548;48.778;9.252;2023-03-15T13:59:26;9.30;99.40
1123;DHT22;548;48.778;9.252;2023-03-15T14:01:54;8.90;99.90
1123;DHT22;548;48.778;9.252;2023-03-15T14:04:23;8.60;99.90
1123;DHT22;548;48.778;9.252;2023-03-15T14:07:07;8.30;99.90
1123;DHT22;548;48.778;9.252;2023-03-15T14:09:36;8.30;99.90
1123;DHT22;548;48.778;9.252;2023-03-15T14:12:14;8.00;99.90
1123;DHT22;548;48.778;9.252;2023-03-15T14:14:49;7.90;99.90
1123;DHT22;548;48.778;9.252;2023-03-15T14:17:19;8.00;99.90
1123;DHT22;548;48.778;9.252;2023-03-15T14:19:51;8.10;99.90
1123;DHT22;548;48.778;9.252;2023-03-15T14:22:20;8.20;99.90
1123;DHT22;548;48.778;9.252;2023-03-15T14:24:49;8.30;99.90
1123;DHT22;548;48.778;9.252;2023-03-15T14:27:19;8.60;99.90
1123;DHT22;548;48.778;9.252;2023-03-15T14:29:48;8.90;99.90
1123;DHT22;548;48.778;9.252;2023-03-15T14:32:24;9.00;99.90
1123;DHT22;548;48.778;9.252;2023-03-15T14:34:57;8.90;99.90
1123;DHT22;548;48.778;9.252;2023-03-15T14:37:29;8.80;99.90
1123;DHT22;548;48.778;9.252;2023-03-15T14:40:06;8.60;99.90
1123;DHT22;548;48.778;9.252;2023-03-15T14:42:37;8.60;99.90
1123;DHT22;548;48.778;9.252;2023-03-15T14:45:04;8.70;99.90
1123;DHT22;548;48.778;9.252;2023-03-15T14:47:31;8.90;99.90
1123;DHT22;548;48.778;9.252;2023-03-15T14:50:00;9.10;99.90
1123;DHT22;548;48.778;9.252;2023-03-15T14:52:26;9.20;99.90
1123;DHT22;548;48.778;9.252;2023-03-15T14:54:53;9.20;99.90
1123;DHT22;548;48.778;9.252;2023-03-15T14:57:22;9.20;99.90
1123;DHT22;548;48.778;9.252;2023-03-15T14:59:49;9.00;99.90
1123;DHT22;548;48.778;9.252;2023-03-15T15:02:17;8.80;99.90
1123;DHT22;548;48.778;9.252;2023-03-15T15:04:43;8.50;99.90
1123;DHT22;548;48.778;9.252;2023-03-15T15:07:13;7.70;99.90
1123;DHT22;548;48.778;9.252;2023-03-15T15:09:48;7.10;99.90
1123;DHT22;548;48.778;9.252;2023-03-15T15:12:16;6.80;99.90
1123;DHT22;548;48.778;9.252;2023-03-15T15:14:44;6.60;99.90
1123;DHT22;548;48.778;9.252;2023-03-15T15:17:11;6.30;99.90
1123;DHT22;548;48.778;9.252;2023-03-15T15:19:38;6.10;99.90
1123;DHT22;548;48.778;9.252;2023-03-15T15:22:04;6.00;99.90
1123;DHT22;548;48.778;9.252;2023-03-15T15:24:31;5.90;99.90
1123;DHT22;548;48.778;9.252;2023-03-15T15:26:58;5.80;99.90
1123;DHT22;548;48.778;9.252;2023-03-15T15:29:25;5.60;99.90
1123;DHT22;548;48.778;9.252;2023-03-15T15:31:53;5.40;99.90
1123;DHT22;548;48.778;9.252;2023-03-15T15:34:19;5.50;99.90
1123;DHT22;548;48.778;9.252;2023-03-15T15:36:46;5.40;99.90
1123;DHT22;548;48.778;9.252;2023-03-15T15:39:19;5.20;99.90
1123;DHT22;548;48.778;9.252;2023-03-15T15:41:47;4.90;99.90
1123;DHT22;548;48.778;9.252;2023-03-15T15:44:16;4.80;99.90
1123;DHT22;548;48.778;9.252;2023-03-15T15:46:43;4.80;99.90
1123;DHT22;548;48.778;9.252;2023-03-15T15:49:11;4.70;99.90
1123;DHT22;548;48.778;9.252;2023-03-15T15:51:39;4.60;99.90
1123;DHT22;548;48.778;9.252;2023-03-15T15:54:12;4.60;99.90
1123;DHT22;548;48.778;9.252;2023-03-15T15:56:46;4.60;99.90
1123;DHT22;548;48.778;9.252;2023-03-15T15:59:14;4.70;99.90
1123;DHT22;548;48.778;9.252;2023-03-15T16:01:41;4.80;99.90
1123;DHT22;548;48.778;9.252;2023-03-15T16:04:08;4.90;99.90
1123;DHT22;548;48.778;9.252;2023-03-15T16:06:36;5.10;99.90
1123;DHT22;548;48.778;9.252;2023-03-15T16:09:05;5.20;99.90
1123;DHT22;548;48.778;9.252;2023-03-15T16:11:32;5.30;99.90
1123;DHT22;548;48.778;9.252;2023-03-15T16:13:59;5.40;99.90
1123;DHT22;548;48.778;9.252;2023-03-15T16:16:26;5.50;99.90
1123;DHT22;548;48.778;9.252;2023-03-15T16:18:53;5.60;99.90
1123;DHT22;548;48.778;9.252;2023-03-15T16:21:27;5.60;99.90
1123;DHT22;548;48.778;9.252;2023-03-15T16:24:03;5.80;99.90
1123;DHT22;548;48.778;9.252;2023-03-15T16:26:31;5.80;99.90
1123;DHT22;548;48.778;9.252;2023-03-15T16:28:58;5.80;99.90
1123;DHT22;548;48.778;9.252;2023-03-15T16:31:24;5.80;99.90
1123;DHT22;548;48.778;9.252;2023-03-15T16:33:51;5.90;99.90
1123;DHT22;548;48.778;9.252;2023-03-15T16:36:19;5.80;99.90
1123;DHT22;548;48.778;9.252;2023-03-15T16:38:46;5.80;99.90
1123;DHT22;548;48.778;9.252;2023-03-15T16:41:15;5.80;99.90
1123;DHT22;548;48.778;9.252;2023-03-15T16:43:43;5.90;99.90
1123;DHT22;548;48.778;9.252;2023-03-15T16:46:14;5.90;99.90
1123;DHT22;548;48.778;9.252;2023-03-15T16:48:41;6.00;99.90
1123;DHT22;548;48.778;9.252;2023-03-15T16:51:11;5.90;99.90
1123;DHT22;548;48.778;9.252;2023-03-15T16:53:38;5.70;99.90
1123;DHT22;548;48.778;9.252;2023-03-15T16:56:11;5.60;99.90
1123;DHT22;548;48.778;9.252;2023-03-15T16:58:40;5.60;99.90
1123;DHT22;548;48.778;9.252;2023-03-15T17:01:08;5.60;99.90
1123;DHT22;548;48.778;9.252;2023-03-15T17:03:35;5.40;99.90
1123;DHT22;548;48.778;9.252;2023-03-15T17:06:02;5.50;99.90
1123;DHT22;548;48.778;9.252;2023-03-15T17:08:28;5.40;99.90
1123;DHT22;548;48.778;9.252;2023-03-15T17:10:55;5.40;99.90
1123;DHT22;548;48.778;9.252;2023-03-15T17:13:25;5.30;99.90
1123;DHT22;548;48.778;9.252;2023-03-15T17:15:54;5.20;99.90
1123;DHT22;548;48.778;9.252;2023-03-15T17:18:20;5.20;99.90
1123;DHT22;548;48.778;9.252;2023-03-15T17:20:48;5.20;99.90
1123;DHT22;548;48.778;9.252;2023-03-15T17:23:16;5.10;99.90
1123;DHT22;548;48.778;9.252;2023-03-15T17:25:45;5.10;99.90
1123;DHT22;548;48.778;9.252;2023-03-15T17:28:12;5.00;99.90
1123;DHT22;548;48.778;9.252;2023-03-15T17:30:39;5.00;99.90
1123;DHT22;548;48.778;9.252;2023-03-15T17:33:08;4.90;99.90
1123;DHT22;548;48.778;9.252;2023-03-15T17:35:36;4.80;99.90
1123;DHT22;548;48.778;9.252;2023-03-15T17:38:06;4.70;99.90
1123;DHT22;548;48.778;9.252;2023-03-15T17:40:36;4.70;99.90
1123;DHT22;548;48.778;9.252;2023-03-15T17:43:03;4.60;99.90
1123;DHT22;548;48.778;9.252;2023-03-15T17:45:32;4.50;99.90
1123;DHT22;548;48.778;9.252;2023-03-15T17:47:59;4.40;99.90
1123;DHT22;548;48.778;9.252;2023-03-15T17:50:29;4.40;99.90
1123;DHT22;548;48.778;9.252;2023-03-15T17:52:58;4.40;99.90
1123;DHT22;548;48.778;9.252;2023-03-15T17:55:28;4.30;99.90
1123;DHT22;548;48.778;9.252;2023-03-15T17:57:56;4.20;99.90
